createdAt,value
2023-02-25T00:01:07.195Z,101758.63
2023-02-25T00:03:53.764Z,101755.06
2023-02-25T00:06:39.442Z,101761.03
2023-02-25T00:09:24.813Z,101764.09
2023-02-25T00:12:10.383Z,101760.16
2023-02-25T00:14:56.378Z,101770.28
2023-02-25T00:17:42.063Z,101766.41
2023-02-25T00:20:27.729Z,101770.69
2023-02-25T00:23:13.689Z,101773.81
2023-02-25T00:26:00.677Z,101775.00
2023-02-25T00:28:46.562Z,101773.97
2023-02-25T00:31:32.751Z,101766.47
2023-02-25T00:34:18.437Z,101766.94
2023-02-25T00:37:05.138Z,101761.25
2023-02-25T00:39:50.554Z,101763.81
2023-02-25T00:42:35.941Z,101763.06
2023-02-25T00:45:21.256Z,101767.81
2023-02-25T00:48:07.590Z,101770.19
2023-02-25T00:50:54.399Z,101779.16
2023-02-25T00:53:40.632Z,101785.34
2023-02-25T00:56:26.825Z,101775.91
2023-02-25T00:59:12.274Z,101775.78
2023-02-25T01:01:57.604Z,101774.72
2023-02-25T01:04:42.994Z,101768.03
2023-02-25T01:07:28.305Z,101776.28
2023-02-25T01:10:13.765Z,101773.97
2023-02-25T01:12:59.623Z,101774.22
2023-02-25T01:15:45.042Z,101777.06
2023-02-25T01:18:30.986Z,101782.47
2023-02-25T01:21:19.544Z,101774.81
2023-02-25T01:24:15.463Z,101761.69
2023-02-25T01:27:03.568Z,101762.13
2023-02-25T01:29:49.010Z,101747.50
2023-02-25T01:32:35.364Z,101748.47
2023-02-25T01:35:20.837Z,101749.78
2023-02-25T01:38:06.075Z,101753.50
2023-02-25T01:40:57.990Z,101762.13
2023-02-25T01:43:43.388Z,101762.06
2023-02-25T01:46:30.122Z,101763.88
2023-02-25T01:49:34.731Z,101762.56
2023-02-25T01:52:24.138Z,101766.38
2023-02-25T01:55:11.114Z,101762.09
2023-02-25T01:58:00.130Z,101756.00
2023-02-25T02:00:46.093Z,101757.69
2023-02-25T02:03:34.910Z,101760.13
2023-02-25T02:06:33.528Z,101763.34
2023-02-25T02:09:23.141Z,101763.16
2023-02-25T02:12:09.485Z,101774.13
2023-02-25T02:14:58.109Z,101767.69
2023-02-25T02:17:54.765Z,101780.34
2023-02-25T02:21:00.027Z,101779.88
2023-02-25T02:24:03.359Z,101782.41
2023-02-25T02:27:02.415Z,101788.69
2023-02-25T02:30:23.373Z,101793.38
2023-02-25T02:33:18.450Z,101797.75
2023-02-25T02:36:16.281Z,101806.28
2023-02-25T02:39:07.642Z,101802.69
2023-02-25T02:42:02.217Z,101795.41
2023-02-25T02:44:53.572Z,101805.66
2023-02-25T02:47:45.913Z,101798.47
2023-02-25T02:50:34.101Z,101809.28
2023-02-25T02:53:29.196Z,101812.75
2023-02-25T02:56:18.493Z,101827.88
2023-02-25T02:59:14.034Z,101824.00
2023-02-25T03:02:11.053Z,101832.06
2023-02-25T03:05:01.930Z,101824.63
2023-02-25T03:07:55.916Z,101831.78
2023-02-25T03:10:41.719Z,101832.84
2023-02-25T03:13:27.124Z,101833.72
2023-02-25T03:16:24.273Z,101836.22
2023-02-25T03:19:25.253Z,101831.59
2023-02-25T03:22:14.342Z,101835.75
2023-02-25T03:25:03.926Z,101832.91
2023-02-25T03:27:55.159Z,101831.66
2023-02-25T03:30:58.723Z,101840.78
2023-02-25T03:34:20.342Z,101837.63
2023-02-25T03:37:16.669Z,101836.53
2023-02-25T03:40:13.954Z,101827.69
2023-02-25T03:43:25.784Z,101831.72
2023-02-25T03:46:14.379Z,101834.94
2023-02-25T03:49:03.536Z,101845.22
2023-02-25T03:51:53.627Z,101847.13
2023-02-25T03:54:39.301Z,101845.31
2023-02-25T03:57:33.917Z,101848.81
2023-02-25T04:00:26.615Z,101858.81
2023-02-25T04:03:12.912Z,101861.09
2023-02-25T04:05:58.565Z,101863.47
2023-02-25T04:08:44.488Z,101861.22
2023-02-25T04:11:30.303Z,101867.56
2023-02-25T04:14:16.222Z,101872.19
2023-02-25T04:17:02.057Z,101868.03
2023-02-25T04:19:47.628Z,101867.34
2023-02-25T04:22:34.014Z,101870.13
2023-02-25T04:25:19.890Z,101863.50
2023-02-25T04:28:05.710Z,101871.56
2023-02-25T04:30:51.311Z,101877.00
2023-02-25T04:33:37.233Z,101878.16
2023-02-25T04:36:35.555Z,101870.50
2023-02-25T04:39:20.853Z,101869.00
2023-02-25T04:42:06.213Z,101865.53
2023-02-25T04:44:51.725Z,101870.69
2023-02-25T04:47:37.922Z,101875.91
2023-02-25T04:50:23.983Z,101871.66
2023-02-25T04:53:09.617Z,101888.03
2023-02-25T04:55:55.027Z,101885.44
2023-02-25T04:58:40.574Z,101889.84
2023-02-25T05:01:26.229Z,101893.38
2023-02-25T05:04:11.598Z,101906.41
2023-02-25T05:06:56.806Z,101905.00
2023-02-25T05:09:42.152Z,101903.91
2023-02-25T05:12:27.356Z,101905.38
2023-02-25T05:15:13.005Z,101902.34
2023-02-25T05:17:58.636Z,101888.88
2023-02-25T05:20:47.991Z,101891.53
2023-02-25T05:23:33.757Z,101883.88
2023-02-25T05:26:24.197Z,101884.84
2023-02-25T05:29:09.639Z,101881.56
2023-02-25T05:31:55.413Z,101880.78
2023-02-25T05:34:41.622Z,101868.78
2023-02-25T05:37:27.030Z,101860.28
2023-02-25T05:40:14.253Z,101861.25
2023-02-25T05:42:59.781Z,101855.16
2023-02-25T05:45:45.008Z,101861.19
2023-02-25T05:48:32.515Z,101857.75
2023-02-25T05:51:21.849Z,101861.16
2023-02-25T05:54:07.181Z,101860.28
2023-02-25T05:56:53.088Z,101855.09
2023-02-25T05:59:38.461Z,101854.03
2023-02-25T06:02:23.914Z,101858.50
2023-02-25T06:05:09.815Z,101855.09
2023-02-25T06:07:55.282Z,101859.19
2023-02-25T06:10:40.777Z,101860.91
2023-02-25T06:13:26.931Z,101868.72
2023-02-25T06:16:12.464Z,101867.06
2023-02-25T06:18:59.626Z,101865.50
2023-02-25T06:21:44.835Z,101863.03
2023-02-25T06:24:30.271Z,101863.03
2023-02-25T06:27:16.205Z,101864.88
2023-02-25T06:30:02.701Z,101870.03
2023-02-25T06:32:48.131Z,101867.44
2023-02-25T06:35:36.178Z,101876.09
2023-02-25T06:38:22.091Z,101882.13
2023-02-25T06:41:15.539Z,101881.31
2023-02-25T06:44:01.285Z,101873.56
2023-02-25T06:46:46.461Z,101877.00
2023-02-25T06:49:31.979Z,101876.19
2023-02-25T06:52:17.695Z,101877.78
2023-02-25T06:55:06.889Z,101892.28
2023-02-25T06:57:54.762Z,101892.16
2023-02-25T07:00:43.220Z,101895.63
2023-02-25T07:03:28.634Z,101906.03
2023-02-25T07:06:16.064Z,101905.16
2023-02-25T07:09:01.463Z,101899.91
2023-02-25T07:11:46.897Z,101910.25
2023-02-25T07:14:32.234Z,101912.09
2023-02-25T07:17:17.655Z,101907.78
2023-02-25T07:20:03.474Z,101908.81
2023-02-25T07:22:49.054Z,101908.81
2023-02-25T07:25:34.653Z,101915.78
2023-02-25T07:28:20.156Z,101918.38
2023-02-25T07:31:15.538Z,101926.13
2023-02-25T07:34:03.642Z,101925.19
2023-02-25T07:36:49.050Z,101923.53
2023-02-25T07:39:34.399Z,101923.53
2023-02-25T07:42:19.858Z,101930.38
2023-02-25T07:45:07.420Z,101926.97
2023-02-25T07:47:53.834Z,101925.31
2023-02-25T07:50:39.302Z,101927.84
2023-02-25T07:53:24.579Z,101925.44
2023-02-25T07:56:10.741Z,101928.03
2023-02-25T07:58:56.413Z,101937.69
2023-02-25T08:01:41.756Z,101936.88
2023-02-25T08:04:28.765Z,101942.97
2023-02-25T08:07:14.340Z,101946.53
2023-02-25T08:09:59.646Z,101947.47
2023-02-25T08:12:45.075Z,101946.59
2023-02-25T08:15:30.536Z,101944.06
2023-02-25T08:18:16.011Z,101955.34
2023-02-25T08:21:02.976Z,101960.69
2023-02-25T08:23:49.265Z,101954.81
2023-02-25T08:26:35.261Z,101958.38
2023-02-25T08:29:20.885Z,101961.91
2023-02-25T08:32:07.267Z,101957.75
2023-02-25T08:34:54.046Z,101963.91
2023-02-25T08:37:39.338Z,101973.50
2023-02-25T08:40:25.128Z,101974.50
2023-02-25T08:43:11.401Z,101968.56
2023-02-25T08:45:56.935Z,101970.41
2023-02-25T08:48:42.865Z,101974.50
2023-02-25T08:51:34.378Z,101973.50
2023-02-25T08:54:20.314Z,101972.75
2023-02-25T08:57:05.961Z,101974.69
2023-02-25T08:59:51.941Z,101971.31
2023-02-25T09:02:38.873Z,101970.50
2023-02-25T09:05:24.478Z,101967.47
2023-02-25T09:08:10.193Z,101972.22
2023-02-25T09:10:55.583Z,101972.84
2023-02-25T09:13:41.116Z,101969.13
2023-02-25T09:16:29.284Z,101970.56
2023-02-25T09:19:18.060Z,101976.22
2023-02-25T09:22:03.718Z,101965.84
2023-02-25T09:24:49.299Z,101979.47
2023-02-25T09:27:34.756Z,101972.19
2023-02-25T09:30:20.238Z,101985.47
2023-02-25T09:33:05.934Z,101989.31
2023-02-25T09:35:52.808Z,101991.72
2023-02-25T09:38:40.015Z,101986.47
2023-02-25T09:41:41.386Z,101982.91
2023-02-25T09:44:34.177Z,101992.19
2023-02-25T09:47:33.873Z,101993.16
2023-02-25T09:50:28.593Z,101998.44
2023-02-25T09:53:22.113Z,101998.59
2023-02-25T09:56:09.335Z,102003.97
2023-02-25T09:58:58.350Z,102004.97
2023-02-25T10:02:28.021Z,102004.34
2023-02-25T10:05:44.204Z,101998.06
2023-02-25T10:08:38.185Z,101999.28
2023-02-25T10:11:38.090Z,101989.53
2023-02-25T10:14:48.653Z,102005.34
2023-02-25T10:18:13.168Z,102003.59
2023-02-25T10:21:20.914Z,102009.75
2023-02-25T10:24:09.773Z,102008.56
2023-02-25T10:27:03.402Z,102023.34
2023-02-25T10:29:52.750Z,102012.91
2023-02-25T10:32:41.788Z,102014.75
2023-02-25T10:35:32.220Z,102020.97
2023-02-25T10:38:17.577Z,102015.72
2023-02-25T10:41:03.062Z,102015.69
2023-02-25T10:43:50.827Z,102014.03
2023-02-25T10:46:39.228Z,102017.50
2023-02-25T10:49:27.553Z,102026.03
2023-02-25T10:52:20.064Z,102025.81
2023-02-25T10:55:24.332Z,102027.22
2023-02-25T10:58:31.972Z,102022.84
2023-02-25T11:01:21.883Z,102030.56
2023-02-25T11:04:18.365Z,102031.22
2023-02-25T11:07:38.441Z,102039.22
2023-02-25T11:10:24.162Z,102035.91
2023-02-25T11:13:28.114Z,102038.72
2023-02-25T11:16:14.789Z,102030.16
2023-02-25T11:19:02.564Z,102020.84
2023-02-25T11:21:48.161Z,102016.56
2023-02-25T11:24:37.031Z,102006.28
2023-02-25T11:27:35.630Z,102014.81
2023-02-25T11:30:29.707Z,102016.50
2023-02-25T11:33:25.801Z,102022.38
2023-02-25T11:36:12.508Z,102027.75
2023-02-25T11:39:18.806Z,102021.44
2023-02-25T11:42:24.279Z,102020.88
2023-02-25T11:45:17.362Z,102016.72
2023-02-25T11:48:04.828Z,102025.00
2023-02-25T11:50:53.354Z,102035.50
2023-02-25T11:53:59.220Z,102033.91
2023-02-25T11:56:53.057Z,102042.16
2023-02-25T11:59:50.364Z,102043.22
2023-02-25T12:02:48.370Z,102035.09
2023-02-25T12:05:56.207Z,102040.09
2023-02-25T12:09:01.978Z,102033.69
2023-02-25T12:11:56.612Z,102040.16
2023-02-25T12:14:54.386Z,102037.66
2023-02-25T12:17:49.099Z,102040.84
2023-02-25T12:20:51.962Z,102037.94
2023-02-25T12:24:02.746Z,102032.75
2023-02-25T12:26:54.558Z,102025.97
2023-02-25T12:29:49.148Z,102029.13
2023-02-25T12:32:34.321Z,102024.59
2023-02-25T12:35:35.875Z,102032.44
2023-02-25T12:38:42.374Z,102033.44
2023-02-25T12:41:56.970Z,102042.69
2023-02-25T12:44:42.276Z,102043.88
2023-02-25T12:48:18.471Z,102030.41
2023-02-25T12:51:32.568Z,102035.59
2023-02-25T12:54:29.951Z,102036.34
2023-02-25T12:57:27.628Z,102033.59
2023-02-25T13:00:22.011Z,102022.13
2023-02-25T13:03:21.420Z,102026.94
2023-02-25T13:06:24.876Z,102018.28
2023-02-25T13:09:10.269Z,102016.81
2023-02-25T13:12:21.076Z,102021.72
2023-02-25T13:15:18.738Z,102021.13
2023-02-25T13:18:24.087Z,102026.53
2023-02-25T13:21:47.357Z,102013.22
2023-02-25T13:24:57.079Z,102020.03
2023-02-25T13:27:45.774Z,102018.44
2023-02-25T13:30:58.083Z,102021.72
2023-02-25T13:34:07.989Z,102012.31
2023-02-25T13:37:16.062Z,102003.81
2023-02-25T13:40:25.531Z,102014.88
2023-02-25T13:43:21.575Z,102016.75
2023-02-25T13:46:28.609Z,102014.09
2023-02-25T13:49:48.031Z,102010.78
2023-02-25T13:52:54.936Z,102014.91
2023-02-25T13:55:46.018Z,102011.91
2023-02-25T13:58:46.633Z,102007.78
2023-02-25T14:01:49.180Z,102009.16
2023-02-25T14:04:43.538Z,102014.56
2023-02-25T14:07:47.631Z,102010.88
2023-02-25T14:10:44.915Z,102002.19
2023-02-25T14:13:48.897Z,102000.25
2023-02-25T14:17:13.959Z,102003.16
2023-02-25T14:20:15.749Z,102012.91
2023-02-25T14:23:20.305Z,102017.50
2023-02-25T14:26:08.684Z,102003.22
2023-02-25T14:29:09.375Z,102011.03
2023-02-25T14:32:06.825Z,102009.31
2023-02-25T14:35:15.566Z,102023.53
2023-02-25T14:38:15.048Z,102021.44
2023-02-25T14:41:12.674Z,102011.69
2023-02-25T14:44:04.347Z,102008.56
2023-02-25T14:47:00.669Z,102009.00
2023-02-25T14:50:11.199Z,102006.44
2023-02-25T14:52:59.434Z,102011.69
2023-02-25T14:56:03.615Z,102015.09
2023-02-25T14:59:07.868Z,102009.09
2023-02-25T15:02:05.786Z,102012.75
2023-02-25T15:05:10.286Z,102005.56
2023-02-25T15:08:08.496Z,102010.75
2023-02-25T15:11:12.821Z,102024.44
2023-02-25T15:14:26.309Z,102016.66
2023-02-25T15:17:15.952Z,102024.75
2023-02-25T15:20:04.522Z,102017.03
2023-02-25T15:23:17.781Z,102013.00
2023-02-25T15:26:26.337Z,102017.63
2023-02-25T15:29:43.717Z,102027.56
2023-02-25T15:32:31.141Z,102026.47
2023-02-25T15:35:35.766Z,102024.66
2023-02-25T15:38:39.263Z,102020.63
2023-02-25T15:41:27.967Z,102025.81
2023-02-25T15:44:12.988Z,102025.16
2023-02-25T15:47:23.532Z,102018.47
2023-02-25T15:50:09.968Z,102012.59
2023-02-25T15:52:58.824Z,102019.28
2023-02-25T15:55:44.999Z,102018.31
2023-02-25T15:58:33.410Z,102021.88
2023-02-25T16:01:48.563Z,102029.56
2023-02-25T16:05:35.621Z,102017.94
2023-02-25T16:08:34.618Z,102018.53
2023-02-25T16:11:34.692Z,102022.19
2023-02-25T16:14:28.860Z,102015.63
2023-02-25T16:17:17.365Z,102026.16
2023-02-25T16:20:22.907Z,102032.38
2023-02-25T16:23:10.864Z,102042.06
2023-02-25T16:26:05.400Z,102045.81
2023-02-25T16:29:18.312Z,102040.06
2023-02-25T16:32:40.686Z,102053.06
2023-02-25T16:35:36.688Z,102059.00
2023-02-25T16:38:41.641Z,102063.22
2023-02-25T16:41:37.657Z,102061.69
2023-02-25T16:44:46.836Z,102062.50
2023-02-25T16:47:36.798Z,102063.03
2023-02-25T16:50:24.702Z,102063.75
2023-02-25T16:53:17.692Z,102069.53
2023-02-25T16:56:02.992Z,102068.78
2023-02-25T16:58:59.172Z,102077.66
2023-02-25T17:01:56.974Z,102082.38
2023-02-25T17:04:49.310Z,102074.44
2023-02-25T17:07:35.927Z,102077.22
2023-02-25T17:10:28.054Z,102074.19
2023-02-25T17:13:24.012Z,102075.06
2023-02-25T17:16:32.339Z,102084.47
2023-02-25T17:19:22.647Z,102088.78
2023-02-25T17:22:08.292Z,102088.66
2023-02-25T17:24:57.039Z,102087.56
2023-02-25T17:27:43.664Z,102085.63
2023-02-25T17:30:47.514Z,102099.53
2023-02-25T17:33:34.682Z,102096.94
2023-02-25T17:36:27.278Z,102097.56
2023-02-25T17:39:19.422Z,102094.91
2023-02-25T17:42:28.914Z,102093.03
2023-02-25T17:45:40.041Z,102095.44
2023-02-25T17:48:30.374Z,102101.22
2023-02-25T17:51:16.163Z,102106.97
2023-02-25T17:54:11.045Z,102107.78
2023-02-25T17:57:04.208Z,102106.97
2023-02-25T17:59:57.915Z,102107.03
2023-02-25T18:02:46.347Z,102107.16
2023-02-25T18:05:34.275Z,102110.78
2023-02-25T18:08:24.121Z,102118.53
2023-02-25T18:11:28.661Z,102120.28
2023-02-25T18:14:45.796Z,102121.19
2023-02-25T18:17:37.333Z,102130.69
2023-02-25T18:20:33.327Z,102117.00
2023-02-25T18:23:21.882Z,102130.84
2023-02-25T18:26:15.543Z,102139.38
2023-02-25T18:29:01.139Z,102145.34
2023-02-25T18:31:46.932Z,102144.63
2023-02-25T18:34:32.812Z,102137.66
2023-02-25T18:37:19.225Z,102145.41
2023-02-25T18:40:05.726Z,102149.66
2023-02-25T18:42:51.235Z,102147.06
2023-02-25T18:45:36.764Z,102156.59
2023-02-25T18:48:22.150Z,102141.16
2023-02-25T18:51:14.055Z,102150.59
2023-02-25T18:53:59.298Z,102155.78
2023-02-25T18:56:44.578Z,102164.44
2023-02-25T18:59:29.912Z,102166.19
2023-02-25T19:02:36.663Z,102169.69
2023-02-25T19:05:23.734Z,102167.91
2023-02-25T19:08:17.216Z,102172.34
2023-02-25T19:11:02.775Z,102181.78
2023-02-25T19:13:48.823Z,102189.50
2023-02-25T19:16:34.396Z,102186.16
2023-02-25T19:19:19.638Z,102187.94
2023-02-25T19:22:04.985Z,102189.63
2023-02-25T19:24:51.166Z,102200.81
2023-02-25T19:27:36.723Z,102199.09
2023-02-25T19:30:31.469Z,102203.41
2023-02-25T19:33:17.185Z,102204.28
2023-02-25T19:36:04.240Z,102199.03
2023-02-25T19:38:49.540Z,102204.09
2023-02-25T19:41:35.072Z,102204.03
2023-02-25T19:44:20.709Z,102203.91
2023-02-25T19:47:08.046Z,102201.38
2023-02-25T19:49:53.453Z,102199.72
2023-02-25T19:52:39.351Z,102207.47
2023-02-25T19:55:24.965Z,102199.59
2023-02-25T19:58:10.451Z,102203.06
2023-02-25T20:01:09.660Z,102206.53
2023-02-25T20:03:55.461Z,102201.31
2023-02-25T20:06:41.128Z,102200.41
2023-02-25T20:09:26.640Z,102194.47
2023-02-25T20:12:12.458Z,102203.91
2023-02-25T20:14:57.793Z,102208.22
2023-02-25T20:17:45.431Z,102214.31
2023-02-25T20:20:30.906Z,102211.78
2023-02-25T20:23:16.197Z,102223.88
2023-02-25T20:26:12.631Z,102227.25
2023-02-25T20:28:57.960Z,102219.41
2023-02-25T20:31:43.541Z,102223.75
2023-02-25T20:34:29.534Z,102231.59
2023-02-25T20:37:20.520Z,102235.88
2023-02-25T20:40:08.403Z,102236.81
2023-02-25T20:42:53.873Z,102238.59
2023-02-25T20:45:39.999Z,102248.97
2023-02-25T20:48:28.956Z,102252.34
2023-02-25T20:51:14.640Z,102250.75
2023-02-25T20:54:01.178Z,102248.28
2023-02-25T20:56:49.291Z,102259.56
2023-02-25T20:59:35.101Z,102256.91
2023-02-25T21:02:20.906Z,102260.34
2023-02-25T21:05:06.368Z,102265.53
2023-02-25T21:07:52.066Z,102256.84
2023-02-25T21:10:37.331Z,102266.28
2023-02-25T21:13:22.771Z,102267.22
2023-02-25T21:16:08.461Z,102273.34
2023-02-25T21:18:54.180Z,102275.16
2023-02-25T21:21:39.737Z,102282.19
2023-02-25T21:24:27.309Z,102288.28
2023-02-25T21:27:12.919Z,102284.78
2023-02-25T21:29:58.208Z,102287.38
2023-02-25T21:32:43.726Z,102284.84
2023-02-25T21:35:29.140Z,102290.03
2023-02-25T21:38:14.566Z,102292.75
2023-02-25T21:41:09.300Z,102297.03
2023-02-25T21:43:54.828Z,102281.44
2023-02-25T21:46:40.626Z,102288.47
2023-02-25T21:49:28.621Z,102308.28
2023-02-25T21:52:16.565Z,102305.69
2023-02-25T21:55:02.272Z,102308.38
2023-02-25T21:57:47.921Z,102310.06
2023-02-25T22:00:33.388Z,102306.59
2023-02-25T22:03:18.798Z,102308.38
2023-02-25T22:06:04.444Z,102302.34
2023-02-25T22:08:51.017Z,102308.44
2023-02-25T22:11:38.340Z,102300.75
2023-02-25T22:14:24.811Z,102301.63
2023-02-25T22:17:09.950Z,102308.50
2023-02-25T22:19:55.315Z,102311.97
2023-02-25T22:22:40.644Z,102313.63
2023-02-25T22:25:26.128Z,102318.88
2023-02-25T22:28:11.581Z,102324.91
2023-02-25T22:30:57.509Z,102324.09
2023-02-25T22:33:44.002Z,102318.94
2023-02-25T22:36:29.803Z,102327.50
2023-02-25T22:39:16.155Z,102323.19
2023-02-25T22:42:01.538Z,102335.22
2023-02-25T22:44:46.764Z,102336.16
2023-02-25T22:47:32.322Z,102334.41
2023-02-25T22:50:17.916Z,102343.84
2023-02-25T22:53:03.599Z,102342.16
2023-02-25T22:55:48.955Z,102345.69
2023-02-25T22:58:36.628Z,102344.88
2023-02-25T23:01:24.183Z,102345.81
2023-02-25T23:04:09.651Z,102339.78
2023-02-25T23:06:55.805Z,102337.06
2023-02-25T23:09:41.253Z,102343.97
2023-02-25T23:12:26.835Z,102350.13
2023-02-25T23:15:12.048Z,102350.81
2023-02-25T23:17:57.427Z,102352.72
2023-02-25T23:20:43.243Z,102358.78
2023-02-25T23:23:38.399Z,102357.97
2023-02-25T23:26:26.852Z,102356.25
2023-02-25T23:29:13.276Z,102357.16
2023-02-25T23:31:59.023Z,102358.91
2023-02-25T23:34:44.577Z,102374.31
2023-02-25T23:37:31.358Z,102366.22
2023-02-25T23:40:17.340Z,102385.75
2023-02-25T23:43:02.517Z,102386.91
2023-02-25T23:45:47.973Z,102392.47
2023-02-25T23:48:33.295Z,102381.69
2023-02-25T23:51:18.872Z,102386.81
2023-02-25T23:54:06.201Z,102380.72
2023-02-25T23:56:51.437Z,102389.41
2023-02-25T23:59:36.921Z,102392.13
